Time;durP1;ratioP1;P1;durP2;ratioP2;P2;SDS_P1;SDS_P2;PMS_P1;PMS_P2;Temp;Humidity;BMP_temperature;BMP_pressure;BME280_temperature;BME280_humidity;BME280_pressure;Samples;Min_cycle;Max_cycle;Signal;HPM_P1;HPM_P2
2020/12/17 00:01:31;;;;;;;9.43;7.33;;;7.90;99.90;;;8.60;96.45;100612.13;4752195;30;20702;-59
2020/12/17 00:03:58;;;;;;;10.33;8.03;;;7.70;99.90;;;8.53;96.61;100613.09;4752534;30;20243;-59
2020/12/17 00:06:37;;;;;;;9.53;7.30;;;7.60;99.90;;;8.29;97.44;100610.84;4752243;30;20675;-59
2020/12/17 00:09:05;;;;;;;9.23;7.43;;;7.50;99.90;;;8.08;98.60;100602.78;4752363;30;20303;-59
2020/12/17 00:11:32;;;;;;;9.80;7.93;;;7.30;99.90;;;8.14;98.99;100605.53;4751899;30;20265;-58
2020/12/17 00:14:00;;;;;;;8.93;7.80;;;7.20;99.90;;;7.89;100.00;100611.47;4752341;30;20723;-59
2020/12/17 00:16:28;;;;;;;9.00;7.43;;;7.10;99.90;;;7.81;100.00;100609.75;4752139;30;20294;-59
2020/12/17 00:18:56;;;;;;;8.57;7.57;;;7.00;99.90;;;7.84;100.00;100600.47;4752112;30;20222;-59
2020/12/17 00:21:23;;;;;;;9.03;7.73;;;6.90;99.90;;;7.54;100.00;100609.66;4751877;30;20536;-58
2020/12/17 00:23:50;;;;;;;9.23;7.53;;;6.80;99.90;;;7.30;100.00;100608.97;4752057;30;20352;-59
2020/12/17 00:26:18;;;;;;;8.20;7.20;;;6.70;99.90;;;7.34;100.00;100604.88;4751716;30;20211;-59
2020/12/17 00:28:45;;;;;;;9.40;7.23;;;6.60;99.90;;;7.36;100.00;100605.53;4751901;30;20212;-59
2020/12/17 00:31:17;;;;;;;8.83;7.23;;;6.50;99.90;;;7.30;100.00;100610.81;4751666;30;20295;-59
2020/12/17 00:33:44;;;;;;;9.67;7.70;;;6.50;99.90;;;7.10;100.00;100617.78;4751940;30;20263;-59
2020/12/17 00:36:17;;;;;;;8.80;7.50;;;6.40;99.90;;;7.56;100.00;100603.06;4751912;30;20721;-59
2020/12/17 00:38:44;;;;;;;8.70;7.20;;;6.50;99.90;;;7.35;100.00;100603.88;4751918;30;20196;-60
2020/12/17 00:41:15;;;;;;;7.83;6.97;;;6.40;99.90;;;7.31;100.00;100602.59;4751633;30;20248;-60
2020/12/17 00:43:45;;;;;;;9.17;7.67;;;6.40;99.90;;;7.24;100.00;100600.81;4751853;30;20303;-59
2020/12/17 00:46:13;;;;;;;9.00;7.50;;;6.30;99.90;;;7.06;100.00;100603.06;4751618;30;20218;-59
2020/12/17 00:48:41;;;;;;;8.27;7.47;;;6.20;99.90;;;7.05;100.00;100609.47;4751430;30;20243;-60
2020/12/17 00:51:09;;;;;;;9.17;7.50;;;6.20;99.90;;;7.02;100.00;100604.44;4751944;30;20671;-60
2020/12/17 00:53:37;;;;;;;9.13;7.30;;;6.20;99.90;;;7.06;100.00;100601.22;4751685;30;20241;-59
2020/12/17 00:56:05;;;;;;;8.77;7.57;;;6.20;99.90;;;7.00;100.00;100593.13;4751442;30;20216;-60
2020/12/17 00:58:33;;;;;;;7.90;7.10;;;6.20;99.90;;;7.08;100.00;100588.50;4751637;30;20270;-60
2020/12/17 01:01:06;;;;;;;8.20;7.00;;;6.10;99.90;;;7.14;100.00;100579.69;4751323;30;20242;-58
2020/12/17 01:03:33;;;;;;;8.83;7.13;;;6.10;99.90;;;7.03;100.00;100582.03;4751359;30;20660;-59
2020/12/17 01:06:01;;;;;;;8.27;7.10;;;6.20;99.90;;;6.95;100.00;100585.63;4751549;30;20255;-59
2020/12/17 01:08:28;;;;;;;8.23;7.37;;;6.10;99.90;;;6.93;100.00;100592.19;4751471;30;20310;-59
2020/12/17 01:10:56;;;;;;;8.43;7.10;;;6.10;99.90;;;6.85;100.00;100592.28;4751099;30;20219;-59
2020/12/17 01:13:23;;;;;;;8.53;7.30;;;6.00;99.90;;;6.87;100.00;100583.03;4751347;30;20268;-59
2020/12/17 01:15:50;;;;;;;8.07;7.20;;;6.00;99.90;;;6.92;100.00;100580.63;4751270;30;20266;-59
2020/12/17 01:18:18;;;;;;;8.43;7.00;;;6.00;99.90;;;6.92;100.00;100575.28;4751247;30;20220;-59
2020/12/17 01:20:45;;;;;;;8.57;7.40;;;6.00;99.90;;;6.97;100.00;100580.91;4751207;30;20295;-59
2020/12/17 01:23:12;;;;;;;8.53;7.37;;;6.00;99.90;;;6.93;100.00;100579.66;4750996;30;20251;-59
2020/12/17 01:25:39;;;;;;;9.60;7.63;;;6.00;99.90;;;6.77;100.00;100593.19;4751219;30;20247;-59
2020/12/17 01:28:12;;;;;;;8.03;7.03;;;6.00;99.90;;;6.84;100.00;100583.41;4751204;30;20273;-60
2020/12/17 01:30:40;;;;;;;9.37;7.37;;;6.00;99.90;;;6.65;100.00;100583.13;4750901;30;20680;-60
2020/12/17 01:33:08;;;;;;;8.20;7.27;;;5.90;99.90;;;6.54;100.00;100583.59;4751135;30;20270;-59
2020/12/17 01:35:35;;;;;;;8.90;7.13;;;5.80;99.90;;;6.70;100.00;100584.25;4751160;30;20291;-60
2020/12/17 01:38:02;;;;;;;8.97;7.67;;;5.80;99.90;;;6.67;100.00;100587.28;4751151;30;20247;-59
2020/12/17 01:40:30;;;;;;;8.43;7.40;;;5.80;99.90;;;6.71;100.00;100593.13;4750391;30;20759;-59
2020/12/17 01:42:57;;;;;;;8.20;6.93;;;5.80;99.90;;;6.61;100.00;100582.69;4750799;30;20219;-59
2020/12/17 01:45:25;;;;;;;7.87;7.03;;;5.80;99.90;;;6.51;100.00;100592.00;4750561;30;20219;-58
2020/12/17 01:47:54;;;;;;;7.07;6.33;;;5.70;99.90;;;6.76;100.00;100594.22;4750843;30;20683;-59
2020/12/17 01:50:22;;;;;;;9.73;7.17;;;5.80;99.90;;;6.98;100.00;100584.44;4750960;30;20216;-59
2020/12/17 01:52:49;;;;;;;9.07;7.47;;;5.80;99.90;;;6.99;100.00;100581.56;4750694;30;20715;-71
2020/12/17 01:55:16;;;;;;;8.00;7.20;;;5.90;99.90;;;6.95;100.00;100582.13;4750661;30;20270;-70
2020/12/17 01:57:47;;;;;;;7.00;6.00;;;5.90;99.90;;;6.72;100.00;100590.25;4750607;30;20227;-71
2020/12/17 02:00:19;;;;;;;9.00;6.67;;;5.80;99.90;;;6.51;100.00;100584.78;4750669;30;20575;-71
2020/12/17 02:02:52;;;;;;;7.83;6.70;;;5.80;99.90;;;6.62;100.00;100588.84;4750989;30;20206;-71
2020/12/17 02:05:20;;;;;;;7.60;6.43;;;5.70;99.90;;;6.50;100.00;100596.50;4750889;30;20255;-72
2020/12/17 02:07:48;;;;;;;7.53;6.60;;;5.70;99.90;;;6.93;100.00;100595.72;4750917;30;20232;-71
2020/12/17 02:10:15;;;;;;;9.67;6.90;;;5.80;99.90;;;7.07;100.00;100597.53;4750601;30;20218;-71
2020/12/17 02:12:48;;;;;;;9.27;7.00;;;5.90;99.90;;;7.42;100.00;100598.59;4750721;30;20327;-71
2020/12/17 02:15:18;;;;;;;8.50;6.33;;;6.10;99.90;;;7.36;100.00;100599.31;4750676;30;20204;-72
2020/12/17 02:17:46;;;;;;;8.83;6.60;;;6.20;99.90;;;7.30;100.00;100603.63;4751003;30;20402;-70
2020/12/17 02:20:14;;;;;;;7.13;6.17;;;6.20;99.90;;;6.85;100.00;100603.00;4750750;30;20246;-71
2020/12/17 02:22:42;;;;;;;9.50;7.43;;;6.10;99.90;;;7.27;100.00;100600.47;4750768;30;20218;-70
2020/12/17 02:25:12;;;;;;;9.80;7.20;;;6.10;99.90;;;7.00;100.00;100606.50;4750729;30;20221;-72
2020/12/17 02:27:41;;;;;;;8.27;6.93;;;6.10;99.90;;;6.48;100.00;100603.06;4750696;30;20192;-71
2020/12/17 02:30:11;;;;;;;7.70;6.63;;;5.90;99.90;;;6.53;100.00;100601.47;4750718;30;20267;-70
2020/12/17 02:32:39;;;;;;;8.60;6.87;;;5.80;99.90;;;6.37;100.00;100603.50;4750576;30;20243;-71
2020/12/17 02:35:09;;;;;;;8.63;6.83;;;5.70;99.90;;;6.33;100.00;100597.66;4750680;30;20664;-71
2020/12/17 02:37:37;;;;;;;8.00;6.70;;;5.60;99.90;;;6.53;100.00;100604.16;4750461;30;20219;-71
2020/12/17 02:40:05;;;;;;;9.23;7.00;;;5.60;99.90;;;6.32;100.00;100601.38;4750556;30;20307;-71
2020/12/17 02:42:33;;;;;;;8.23;6.60;;;5.50;99.90;;;6.24;100.00;100609.44;4750477;30;20247;-71
2020/12/17 02:45:01;;;;;;;8.57;7.33;;;5.50;99.90;;;6.49;100.00;100594.00;4750423;30;20599;-72
2020/12/17 02:47:28;;;;;;;9.80;6.90;;;5.50;99.90;;;6.45;100.00;100587.34;4750395;30;20257;-71
2020/12/17 02:49:55;;;;;;;9.07;7.30;;;5.50;99.90;;;6.85;100.00;100585.06;4750512;30;20199;-70
2020/12/17 02:52:22;;;;;;;9.00;7.53;;;5.60;99.90;;;6.70;100.00;100581.56;4751912;30;20602;-72
2020/12/17 02:54:49;;;;;;;9.93;7.87;;;5.70;99.90;;;6.57;100.00;100584.06;4753630;30;20302;-72
2020/12/17 02:57:17;;;;;;;11.53;8.10;;;5.60;99.90;;;6.43;100.00;100578.69;4753453;30;20214;-71
2020/12/17 02:59:45;;;;;;;9.73;7.70;;;5.60;99.90;;;6.33;100.00;100584.28;4753540;30;20741;-71
2020/12/17 03:02:12;;;;;;;10.60;7.93;;;5.60;99.90;;;6.64;100.00;100589.50;4753492;30;20305;-72
2020/12/17 03:04:39;;;;;;;11.17;8.53;;;5.70;99.90;;;6.45;100.00;100582.84;4753478;30;20219;-71
2020/12/17 03:07:06;;;;;;;11.00;8.20;;;5.60;99.90;;;6.67;100.00;100589.97;4753380;30;20302;-72
2020/12/17 03:09:33;;;;;;;10.60;8.03;;;5.70;99.90;;;6.43;100.00;100592.88;4753402;30;20217;-71
2020/12/17 03:12:00;;;;;;;10.63;7.70;;;5.60;99.90;;;6.52;100.00;100597.16;4753188;30;20309;-71
2020/12/17 03:14:28;;;;;;;10.97;8.30;;;5.60;99.90;;;6.55;100.00;100601.28;4753164;30;20215;-72
2020/12/17 03:16:56;;;;;;;12.00;8.70;;;5.60;99.90;;;6.68;100.00;100598.84;4752916;30;20219;-71
2020/12/17 03:19:23;;;;;;;11.87;8.57;;;5.60;99.90;;;6.69;100.00;100611.19;4753081;30;20212;-72
2020/12/17 03:21:51;;;;;;;13.23;8.97;;;5.60;99.90;;;6.74;99.91;100608.81;4753289;30;20297;-70
2020/12/17 03:24:19;;;;;;;12.73;9.00;;;5.70;99.90;;;6.64;100.00;100605.56;4753194;30;20214;-71
2020/12/17 03:26:46;;;;;;;12.73;9.27;;;5.70;99.90;;;6.64;100.00;100611.75;4753087;30;20218;-71
2020/12/17 03:29:14;;;;;;;11.87;8.87;;;5.70;99.90;;;6.48;100.00;100616.44;4753156;30;20302;-71
2020/12/17 03:31:41;;;;;;;12.30;9.50;;;5.70;99.90;;;6.41;100.00;100613.63;4752659;30;20223;-72
2020/12/17 03:34:09;;;;;;;12.60;10.03;;;5.60;99.90;;;6.54;100.00;100603.16;4752942;30;20239;-71
2020/12/17 03:36:36;;;;;;;13.93;10.20;;;5.60;99.90;;;6.26;100.00;100594.06;4752965;30;20307;-72
2020/12/17 03:39:04;;;;;;;12.97;9.77;;;5.50;99.90;;;6.17;100.00;100612.00;4752958;30;20246;-71
2020/12/17 03:41:32;;;;;;;13.97;10.10;;;5.40;99.90;;;6.34;100.00;100604.69;4752773;30;20299;-70
2020/12/17 03:43:59;;;;;;;14.50;9.87;;;5.40;99.90;;;6.38;100.00;100602.47;4752915;30;20218;-71
2020/12/17 03:46:26;;;;;;;12.97;9.83;;;5.40;99.90;;;6.29;100.00;100604.41;4752466;30;20734;-71
2020/12/17 03:48:53;;;;;;;14.57;11.23;;;5.40;99.90;;;6.02;100.00;100605.78;4752370;30;20342;-72
2020/12/17 03:51:21;;;;;;;14.23;11.00;;;5.30;99.90;;;6.21;100.00;100607.13;4752770;30;20214;-70
2020/12/17 03:53:49;;;;;;;14.60;10.70;;;5.30;99.90;;;5.72;100.00;100611.16;4752662;30;20259;-72
2020/12/17 03:56:16;;;;;;;16.20;11.50;;;5.20;99.90;;;6.32;100.00;100612.06;4752522;30;20310;-72
2020/12/17 03:58:43;;;;;;;15.73;11.03;;;5.20;99.90;;;6.17;100.00;100603.19;4752239;30;20282;-70
2020/12/17 04:01:10;;;;;;;14.80;11.20;;;5.30;99.90;;;5.91;100.00;100605.38;4752253;30;20607;-71
2020/12/17 04:03:37;;;;;;;16.10;11.80;;;5.20;99.90;;;5.98;100.00;100607.19;4752047;30;20674;-71
2020/12/17 04:06:05;;;;;;;15.33;11.13;;;5.20;99.90;;;6.14;100.00;100608.88;4752137;30;20214;-70
2020/12/17 04:08:33;;;;;;;15.13;10.90;;;5.10;99.90;;;6.08;100.00;100597.06;4752384;30;20633;-71
2020/12/17 04:11:01;;;;;;;15.77;11.73;;;5.10;99.90;;;6.27;100.00;100597.56;4752298;30;20306;-70
2020/12/17 04:13:30;;;;;;;15.60;11.43;;;5.20;99.90;;;5.97;100.00;100608.19;4752274;30;20271;-71
2020/12/17 04:15:59;;;;;;;15.33;10.70;;;5.20;99.90;;;6.08;100.00;100617.63;4752228;30;20598;-71
2020/12/17 04:18:26;;;;;;;17.77;11.70;;;5.20;99.90;;;6.19;100.00;100614.50;4752276;30;20331;-71
2020/12/17 04:20:54;;;;;;;15.67;10.97;;;5.20;99.90;;;6.13;100.00;100624.09;4752176;30;20241;-72
2020/12/17 04:23:21;;;;;;;16.53;11.13;;;5.20;99.90;;;5.75;100.00;100611.63;4752117;30;20314;-72
2020/12/17 04:25:50;;;;;;;16.80;10.77;;;5.10;99.90;;;6.05;100.00;100613.44;4751982;30;20296;-72
2020/12/17 04:28:17;;;;;;;16.27;11.33;;;5.10;99.90;;;5.65;100.00;100611.03;4751845;30;20682;-72
2020/12/17 04:30:45;;;;;;;14.80;11.30;;;5.00;99.90;;;5.66;100.00;100622.56;4751904;30;20298;-72
2020/12/17 04:33:12;;;;;;;15.83;11.57;;;4.90;99.90;;;5.90;100.00;100609.91;4751952;30;20322;-71
2020/12/17 04:35:39;;;;;;;15.07;10.70;;;4.90;99.90;;;5.93;100.00;100603.38;4751891;30;20238;-73
2020/12/17 04:38:06;;;;;;;14.23;10.27;;;5.00;99.90;;;5.50;100.00;100602.13;4751925;30;20302;-72
2020/12/17 04:40:34;;;;;;;15.80;10.87;;;4.90;99.90;;;5.40;100.00;100600.69;4751749;30;20297;-71
2020/12/17 04:43:02;;;;;;;15.27;10.97;;;4.70;99.90;;;5.42;100.00;100607.53;4751597;30;20219;-71
2020/12/17 04:45:31;;;;;;;15.57;11.20;;;4.70;99.90;;;5.95;100.00;100604.84;4751442;30;20219;-71
2020/12/17 04:48:05;;;;;;;14.60;10.80;;;4.80;99.90;;;5.55;100.00;100593.56;4751767;30;20297;-71
2020/12/17 04:50:34;;;;;;;16.60;10.63;;;4.80;99.90;;;5.13;100.00;100591.31;4751466;30;20250;-71
2020/12/17 04:53:03;;;;;;;15.70;10.77;;;4.70;99.90;;;5.50;100.00;100586.09;4751599;30;20720;-72
2020/12/17 04:55:31;;;;;;;13.73;10.20;;;4.70;99.90;;;5.56;100.00;100590.75;4751637;30;20218;-71
2020/12/17 04:58:01;;;;;;;15.07;10.23;;;4.70;99.90;;;5.55;100.00;100594.41;4751328;30;20606;-70
2020/12/17 05:00:28;;;;;;;14.60;10.97;;;4.70;99.90;;;5.93;100.00;100587.34;4751301;30;20301;-71
2020/12/17 05:02:57;;;;;;;13.23;10.13;;;4.80;99.90;;;5.89;100.00;100581.50;4751509;30;20243;-71
2020/12/17 05:05:24;;;;;;;14.93;10.63;;;4.80;99.90;;;5.81;100.00;100578.88;4751126;30;20777;-70
2020/12/17 05:07:51;;;;;;;13.27;9.87;;;4.90;99.90;;;5.80;100.00;100585.22;4751198;30;20222;-72
2020/12/17 05:10:19;;;;;;;13.77;10.27;;;4.90;99.90;;;6.08;100.00;100578.34;4751516;30;20210;-73
2020/12/17 05:12:46;;;;;;;14.13;10.03;;;5.00;99.90;;;6.06;100.00;100587.53;4751214;30;20240;-72
2020/12/17 05:15:15;;;;;;;14.30;10.13;;;5.10;99.90;;;6.05;100.00;100581.34;4750553;30;20221;-73
2020/12/17 05:17:48;;;;;;;12.93;10.07;;;5.20;99.90;;;6.08;100.00;100583.69;4751118;30;20213;-72
2020/12/17 05:20:16;;;;;;;12.07;9.80;;;5.20;99.90;;;6.13;100.00;100588.50;4751539;30;20238;-71
2020/12/17 05:22:45;;;;;;;12.40;9.27;;;5.20;99.90;;;6.20;99.92;100584.09;4751163;30;20623;-72
2020/12/17 05:25:15;;;;;;;14.20;10.03;;;5.20;99.90;;;6.07;100.00;100590.03;4751562;30;20244;-73
2020/12/17 05:27:43;;;;;;;12.20;8.93;;;5.20;99.90;;;5.92;100.00;100589.16;4751234;30;20314;-72
2020/12/17 05:30:10;;;;;;;11.60;9.17;;;5.20;99.90;;;6.29;98.87;100606.25;4750862;30;20773;-72
2020/12/17 05:32:41;;;;;;;10.80;8.33;;;5.30;99.90;;;6.23;99.06;100605.13;4750894;30;20720;-72
2020/12/17 05:35:16;;;;;;;12.77;9.40;;;5.40;99.90;;;6.28;98.69;100601.91;4751072;30;20679;-72
2020/12/17 05:37:45;;;;;;;12.70;9.37;;;5.40;99.90;;;6.27;98.77;100608.28;4751009;30;20650;-71
2020/12/17 05:40:13;;;;;;;12.17;8.73;;;5.40;99.90;;;6.29;98.45;100600.91;4751701;30;20220;-72
2020/12/17 05:42:42;;;;;;;11.60;8.53;;;5.40;99.90;;;6.36;99.27;100605.31;4751200;30;20210;-72
2020/12/17 05:45:24;;;;;;;12.23;8.17;;;5.40;99.90;;;6.33;98.39;100600.34;4751442;30;20310;-71
2020/12/17 05:48:14;;;;;;;10.53;8.33;;;5.40;99.90;;;6.29;98.81;100606.25;4751266;30;20253;-71
2020/12/17 05:50:52;;;;;;;10.30;8.13;;;5.40;99.90;;;6.61;97.81;100620.16;4750912;30;20226;-72
2020/12/17 05:53:21;;;;;;;13.10;8.93;;;5.50;99.90;;;6.65;96.11;100616.09;4750737;30;20228;-72
2020/12/17 05:56:00;;;;;;;11.27;8.40;;;5.60;99.90;;;6.39;97.19;100615.69;4751082;30;20242;-72
2020/12/17 05:58:38;;;;;;;12.80;8.80;;;5.60;99.90;;;6.39;97.96;100622.88;4750892;30;20286;-72
2020/12/17 06:01:10;;;;;;;10.87;7.83;;;5.60;99.90;;;6.64;96.54;100613.59;4750894;30;20200;-71
2020/12/17 06:03:38;;;;;;;12.87;8.67;;;5.70;99.90;;;6.59;96.61;100626.69;4750957;30;20304;-72
2020/12/17 06:06:07;;;;;;;11.37;8.33;;;5.70;99.90;;;6.49;97.65;100615.41;4750769;30;20313;-72
2020/12/17 06:08:37;;;;;;;9.53;7.63;;;5.70;99.90;;;6.40;98.54;100613.81;4750938;30;20643;-72
2020/12/17 06:11:07;;;;;;;11.00;8.30;;;5.70;99.90;;;6.55;97.88;100620.88;4750841;30;20250;-72
2020/12/17 06:13:39;;;;;;;11.63;7.97;;;5.60;99.90;;;6.60;97.18;100613.13;4750885;30;20326;-73
2020/12/17 06:16:08;;;;;;;10.77;7.60;;;5.70;99.90;;;6.65;96.88;100609.88;4750778;30;20397;-72
2020/12/17 06:18:48;;;;;;;9.60;7.33;;;5.70;99.90;;;6.56;97.18;100611.00;4750801;30;20293;-71
2020/12/17 06:21:16;;;;;;;19.40;13.67;;;5.70;99.90;;;6.77;96.33;100608.44;4750897;30;20199;-72
2020/12/17 06:23:43;;;;;;;11.33;7.37;;;5.70;99.90;;;6.56;96.40;100609.13;4750917;30;20310;-71
2020/12/17 06:26:12;;;;;;;11.30;8.00;;;5.70;99.90;;;6.83;95.25;100600.47;4751633;30;20247;-72
2020/12/17 06:28:47;;;;;;;9.73;7.27;;;5.80;99.90;;;6.66;96.68;100601.72;4754127;30;20319;-71
2020/12/17 06:31:17;;;;;;;11.83;8.40;;;5.80;99.90;;;6.76;96.23;100612.97;4754478;30;20203;-72
2020/12/17 06:33:46;;;;;;;9.43;6.93;;;5.90;99.90;;;6.67;96.50;100619.41;4753961;30;20579;-72
2020/12/17 06:36:28;;;;;;;9.77;7.60;;;5.80;99.90;;;6.68;97.13;100615.72;4754235;30;20300;-72
2020/12/17 06:38:56;;;;;;;9.97;7.33;;;5.80;99.90;;;6.79;95.86;100620.63;4753468;30;20289;-73
2020/12/17 06:41:24;;;;;;;9.57;7.10;;;5.80;99.90;;;6.79;96.01;100622.47;4753896;30;20248;-73
2020/12/17 06:43:52;;;;;;;11.00;7.67;;;5.90;99.90;;;6.62;96.90;100613.78;4753868;30;20481;-71
2020/12/17 06:46:36;;;;;;;9.47;7.47;;;5.90;99.90;;;6.69;97.89;100622.75;4753783;30;20215;-73
2020/12/17 06:49:06;;;;;;;9.27;7.30;;;5.80;99.90;;;6.74;96.20;100624.88;4753647;30;20626;-72
2020/12/17 06:51:37;;;;;;;11.93;7.40;;;5.90;99.90;;;6.89;96.22;100626.53;4754242;30;20202;-71
2020/12/17 06:54:08;;;;;;;8.67;6.73;;;5.90;99.90;;;6.88;95.19;100630.22;4753362;30;20273;-71
2020/12/17 06:56:40;;;;;;;8.50;7.03;;;5.90;99.90;;;6.75;96.60;100630.03;4731468;30;20260;-72
2020/12/17 06:59:19;;;;;;;10.77;7.13;;;5.90;99.90;;;6.65;96.24;100628.63;4736049;30;20666;-70
2020/12/17 07:01:48;;;;;;;9.70;7.10;;;5.90;99.90;;;6.81;96.26;100623.13;4736243;30;20776;-75
2020/12/17 07:04:43;;;;;;;10.43;7.10;;;5.90;99.90;;;6.45;97.82;100614.94;4736759;30;20216;-73
2020/12/17 07:07:16;;;;;;;9.27;7.10;;;5.80;99.90;;;6.72;96.51;100621.53;4735900;30;20282;-73
2020/12/17 07:09:47;;;;;;;11.10;7.00;;;5.80;99.90;;;6.58;97.68;100617.81;4735807;30;20291;-74
2020/12/17 07:12:41;;;;;;;9.73;7.30;;;5.70;99.90;;;6.58;97.14;100614.34;4735815;30;20208;-73
2020/12/17 07:15:34;;;;;;;9.23;7.03;;;5.70;99.90;;;6.36;98.16;100621.38;4735841;30;20282;-74
2020/12/17 07:18:24;;;;;;;9.63;7.20;;;5.60;99.90;;;6.79;96.23;100633.16;4740787;30;20294;-73
2020/12/17 07:21:02;;;;;;;10.73;6.70;;;5.70;99.90;;;7.02;94.52;100620.53;4749461;30;20224;-73
2020/12/17 07:23:35;;;;;;;11.90;6.70;;;5.80;99.90;;;6.71;96.00;100618.03;4753396;30;20193;-73
2020/12/17 07:26:08;;;;;;;9.60;6.40;;;5.80;99.90;;;6.52;97.21;100623.06;4752936;30;20308;-73
2020/12/17 07:28:35;;;;;;;10.33;7.03;;;5.80;99.90;;;6.84;95.12;100622.75;4753221;30;20224;-73
2020/12/17 07:31:03;;;;;;;11.17;6.97;;;5.90;99.90;;;6.62;95.68;100629.84;4752873;30;20306;-73
2020/12/17 07:33:44;;;;;;;9.77;6.80;;;5.90;99.90;;;6.70;96.54;100623.56;4753130;30;20319;-73
2020/12/17 07:36:13;;;;;;;8.83;6.23;;;5.80;99.90;;;7.18;92.05;100631.91;4753138;30;20231;-75
2020/12/17 07:38:41;;;;;;;8.77;6.60;;;6.00;99.90;;;7.18;92.02;100631.91;4752373;30;20636;-71
2020/12/17 07:41:26;;;;;;;9.57;7.03;;;6.10;99.90;;;7.20;92.47;100632.50;4752558;30;20690;-74
2020/12/17 07:43:54;;;;;;;10.27;6.77;;;6.10;99.90;;;7.20;91.98;100632.50;4752934;30;20297;-72
2020/12/17 07:46:43;;;;;;;10.27;7.23;;;6.10;99.90;;;7.39;90.30;100634.63;4752668;30;20299;-71
2020/12/17 07:49:26;;;;;;;9.97;6.93;;;6.30;99.90;;;7.30;90.90;100641.13;4752662;30;20240;-74
2020/12/17 07:51:54;;;;;;;9.53;6.83;;;6.30;99.90;;;7.00;91.70;100642.13;4752736;30;20200;-72
2020/12/17 07:54:22;;;;;;;9.00;6.50;;;6.20;99.90;;;7.23;91.34;100632.16;4752431;30;20642;-73
2020/12/17 07:56:59;;;;;;;9.07;6.47;;;6.20;99.90;;;7.07;91.29;100631.53;4734102;30;20303;-75
2020/12/17 07:59:26;;;;;;;9.77;6.43;;;6.20;99.90;;;7.16;91.30;100646.47;4731921;30;20210;-75
2020/12/17 08:01:58;;;;;;;9.87;6.70;;;6.20;99.90;;;7.20;90.83;100631.72;4732812;30;20242;-74
2020/12/17 08:04:25;;;;;;;11.17;7.20;;;6.20;99.90;;;6.98;91.77;100635.31;4732604;30;20189;-74
2020/12/17 08:06:53;;;;;;;8.93;7.00;;;6.20;99.90;;;7.14;91.48;100638.63;4732732;30;20254;-73
2020/12/17 08:09:23;;;;;;;9.30;6.77;;;6.20;99.90;;;7.14;90.06;100641.31;4732915;30;20258;-74
2020/12/17 08:11:55;;;;;;;10.33;6.73;;;6.30;99.90;;;7.26;89.59;100645.19;4731634;30;20306;-74
2020/12/17 08:14:24;;;;;;;10.17;7.33;;;6.30;99.90;;;7.14;89.98;100645.81;4731510;30;20585;-74
2020/12/17 08:16:53;;;;;;;9.63;6.73;;;6.30;99.90;;;7.22;89.17;100648.44;4731369;30;20243;-73
2020/12/17 08:19:20;;;;;;;9.47;6.97;;;6.30;99.90;;;6.99;90.14;100653.03;4745988;30;20293;-69
2020/12/17 08:21:48;;;;;;;9.07;7.00;;;6.30;99.90;;;7.34;88.00;100650.44;4748643;30;20226;-68
2020/12/17 08:24:16;;;;;;;8.60;6.73;;;6.30;99.90;;;7.30;87.97;100648.31;4748748;30;20211;-68
2020/12/17 08:26:44;;;;;;;11.43;7.70;;;6.40;99.90;;;7.35;88.28;100649.44;4748000;30;20212;-68
2020/12/17 08:29:11;;;;;;;9.97;7.37;;;6.40;99.90;;;7.31;88.80;100655.34;4731224;30;20392;-69
2020/12/17 08:31:38;;;;;;;9.83;7.43;;;6.40;99.90;;;7.51;87.44;100644.88;4730922;30;20208;-69
2020/12/17 08:34:06;;;;;;;11.63;7.50;;;6.50;99.90;;;7.47;87.70;100650.59;4731043;30;20327;-70
2020/12/17 08:36:37;;;;;;;10.47;7.80;;;6.50;99.90;;;7.64;87.02;100645.03;4730879;30;20212;-68
2020/12/17 08:39:08;;;;;;;8.83;6.97;;;6.60;99.90;;;7.42;87.43;100638.78;4730831;30;20247;-68
2020/12/17 08:41:54;;;;;;;10.53;7.43;;;6.60;99.90;;;7.66;86.04;100657.22;4730937;30;20284;-69
2020/12/17 08:44:27;;;;;;;10.93;7.30;;;6.70;99.90;;;7.68;85.99;100652.50;4731054;30;20364;-75
2020/12/17 08:46:58;;;;;;;10.83;6.90;;;6.70;99.90;;;7.66;86.09;100661.75;4730607;30;20737;-79
2020/12/17 08:49:27;;;;;;;9.87;7.40;;;6.80;99.90;;;7.71;85.81;100657.50;4730543;30;20335;-77
2020/12/17 08:51:55;;;;;;;9.77;7.07;;;6.80;99.90;;;7.79;85.31;100669.94;4730534;30;20280;-72
2020/12/17 08:54:27;;;;;;;10.37;7.47;;;6.80;99.90;;;7.82;85.22;100670.41;4730441;30;20660;-77
2020/12/17 08:57:00;;;;;;;10.13;7.20;;;6.90;99.90;;;7.76;85.19;100668.50;4730547;30;20209;-70
2020/12/17 08:59:28;;;;;;;9.67;7.33;;;6.90;99.90;;;7.86;84.63;100677.06;4730509;30;20687;-72
2020/12/17 09:01:57;;;;;;;10.27;7.20;;;6.90;99.90;;;7.91;85.17;100674.66;4730675;30;20216;-70
2020/12/17 09:04:26;;;;;;;12.50;7.47;;;7.00;99.90;;;7.96;85.46;100682.13;4730703;30;20303;-76
2020/12/17 09:06:56;;;;;;;8.70;6.90;;;7.00;99.90;;;7.96;83.86;100685.63;4730392;30;20220;-71
2020/12/17 09:09:26;;;;;;;12.60;8.47;;;7.00;99.90;;;8.07;84.42;100686.97;4730248;30;20248;-71
2020/12/17 09:12:10;;;;;;;13.50;7.90;;;7.10;99.90;;;7.84;85.70;100688.97;4730410;30;20213;-71
2020/12/17 09:14:39;;;;;;;10.83;7.23;;;7.00;99.90;;;8.09;84.33;100693.81;4730301;30;20567;-69
2020/12/17 09:17:12;;;;;;;9.57;7.63;;;7.10;99.90;;;8.10;83.87;100698.16;4730345;30;20251;-71
2020/12/17 09:19:40;;;;;;;11.40;7.77;;;7.10;99.90;;;8.27;84.15;100704.97;4746908;30;20244;-70
2020/12/17 09:22:08;;;;;;;9.47;7.03;;;7.20;99.90;;;8.37;84.12;100702.78;4748046;30;20315;-69
2020/12/17 09:24:39;;;;;;;10.63;7.50;;;7.30;99.90;;;8.32;83.35;100701.72;4747619;30;20240;-68
2020/12/17 09:27:23;;;;;;;11.00;7.50;;;7.30;99.90;;;8.50;83.71;100696.72;4747902;30;20204;-70
2020/12/17 09:30:12;;;;;;;10.27;7.53;;;7.40;99.90;;;8.64;81.72;100698.50;4747349;30;20230;-75
2020/12/17 09:32:49;;;;;;;10.70;7.43;;;7.50;99.90;;;8.67;81.37;100695.44;4747358;30;20199;-67
2020/12/17 09:35:18;;;;;;;12.13;8.47;;;7.60;99.90;;;8.71;81.45;100696.69;4747603;30;20287;-68
2020/12/17 09:37:58;;;;;;;11.43;7.33;;;7.70;99.90;;;8.66;81.80;100691.06;4747751;30;20212;-66
2020/12/17 09:40:26;;;;;;;9.77;7.13;;;7.70;99.90;;;8.88;80.89;100690.00;4747775;30;20279;-66
2020/12/17 09:43:05;;;;;;;12.63;7.03;;;7.80;99.90;;;8.93;81.29;100681.38;4747545;30;20243;-64
2020/12/17 09:45:34;;;;;;;11.57;7.17;;;7.80;99.90;;;8.77;80.65;100693.25;4748359;30;20251;-78
2020/12/17 09:48:14;;;;;;;11.03;7.63;;;7.80;99.90;;;8.64;82.65;100693.13;4747700;30;20338;-69
2020/12/17 09:50:52;;;;;;;10.00;6.70;;;7.80;99.90;;;8.59;82.19;100687.53;4747550;30;20676;-68
2020/12/17 09:53:20;;;;;;;8.40;6.67;;;7.80;99.90;;;8.54;81.82;100681.91;4747482;30;20258;-69
2020/12/17 09:55:48;;;;;;;9.00;6.73;;;7.70;99.90;;;8.67;81.76;100676.63;4747547;30;20221;-70
2020/12/17 09:58:16;;;;;;;10.40;7.07;;;7.70;99.90;;;8.70;81.91;100665.50;4747328;30;20254;-69
2020/12/17 10:00:43;;;;;;;10.23;7.07;;;7.70;99.90;;;8.67;82.38;100670.44;4747938;30;20220;-70
2020/12/17 10:03:11;;;;;;;8.67;6.63;;;7.70;99.90;;;8.68;81.77;100658.69;4751151;30;20675;-72
2020/12/17 10:05:39;;;;;;;9.07;6.97;;;7.80;99.90;;;8.72;83.01;100666.13;4739408;30;20244;-71
2020/12/17 10:08:06;;;;;;;10.57;7.40;;;7.80;99.90;;;8.59;82.65;100664.16;4733487;30;20216;-71
2020/12/17 10:10:35;;;;;;;10.03;6.73;;;7.70;99.90;;;8.62;82.29;100663.78;4733107;30;20240;-70
2020/12/17 10:13:03;;;;;;;9.43;7.03;;;7.70;99.90;;;8.64;82.72;100658.22;4733337;30;20227;-72
2020/12/17 10:15:31;;;;;;;10.00;7.20;;;7.70;99.90;;;8.53;83.36;100664.13;4732835;30;20702;-71
2020/12/17 10:17:59;;;;;;;9.47;7.27;;;7.70;99.90;;;8.58;83.08;100664.38;4738164;30;20212;-70
2020/12/17 10:20:26;;;;;;;10.10;7.03;;;7.70;99.90;;;8.60;82.86;100660.47;4750722;30;20297;-69
2020/12/17 10:22:54;;;;;;;8.13;6.43;;;7.70;99.90;;;8.70;82.06;100654.75;4750707;30;20332;-67
2020/12/17 10:25:23;;;;;;;9.20;6.93;;;7.80;99.90;;;8.68;83.03;100664.03;4750690;30;20393;-66
2020/12/17 10:27:52;;;;;;;9.50;6.50;;;7.70;99.90;;;8.88;81.29;100665.81;4750704;30;20282;-67
2020/12/17 10:30:19;;;;;;;9.03;6.50;;;7.80;99.90;;;8.66;81.82;100674.16;4750778;30;20212;-72